KGLE/GLE METAR and TAF weather

Enter ICAO airport designator
Station Type Date Time Source
KGLE METAR 2022/01/25 04:55 UTC NOAA

KGLE 250455Z AUTO 00000KT 4SM BR CLR 04/04 A2993 RMK AO2 T00430038


Station Type Date Time Source
KGLE Decoded METAR 2022/01/25 04:55 UTC NOAA

Gainesville, Gainesville Municipal Airport, TX, United States (KGLE) 33-39-05N 097-11-49W
Jan 24, 2022 - 11:55 PM EST / 2022.01.25 0455 UTC
Wind: Calm:0
Visibility: 4 mile(s):0
Sky conditions: clear
Weather: mist
Temperature: 39.7 F (4.3 C)
Dew Point: 38.8 F (3.8 C)
Relative Humidity: 96%
Pressure (altimeter): 29.93 in. Hg (1013 hPa)
ob: KGLE 250455Z AUTO 00000KT 4SM BR CLR 04/04 A2993 RMK AO2 T00430038
cycle: 5

Station Type Date Time Source
KGLE TAF UTC NOAA

Error!

Example: see airport list